Time;durP1;ratioP1;P1;durP2;ratioP2;P2;SDS_P1;SDS_P2;PMS_P1;PMS_P2;Temp;Humidity;BMP_temperature;BMP_pressure;BME280_temperature;BME280_humidity;BME280_pressure;Samples;Min_cycle;Max_cycle;Signal;HPM_P1;HPM_P2
2023/10/12 00:00:24;;;;;;;19.63;18.23;;;;;;;;;;5004024;28;20041;-65
2023/10/12 00:02:52;;;;;;;19.77;18.65;;;;;;;;;;4983606;28;20029;-66
2023/10/12 00:05:18;;;;;;;21.38;20.08;;;;;;;;;;5002263;28;20125;-65
2023/10/12 00:07:45;;;;;;;20.63;19.38;;;;;;;;;;5002919;28;20073;-65
2023/10/12 00:12:47;;;;;;;19.02;17.92;;;;;;;;;;5002863;28;20034;-65
2023/10/12 00:17:56;;;;;;;22.65;21.15;;;;;;;;;;5004409;28;20123;-64
2023/10/12 00:23:10;;;;;;;20.38;19.27;;;;;;;;;;5002018;28;20045;-64
2023/10/12 00:25:45;;;;;;;18.75;17.73;;;;;;;;;;5003686;28;20033;-64
2023/10/12 00:28:19;;;;;;;21.73;20.52;;;;;;;;;;5004077;28;20030;-64
2023/10/12 00:30:49;;;;;;;19.50;18.40;;;;;;;;;;5002058;28;20030;-64
2023/10/12 00:33:15;;;;;;;;;;;;;;;;;;4985201;28;20462;-64
2023/10/12 00:35:40;;;;;;;20.95;19.75;;;;;;;;;;5003794;28;19917;-64
2023/10/12 00:38:19;;;;;;;21.17;19.88;;;;;;;;;;5000120;28;20045;-64
2023/10/12 00:40:55;;;;;;;20.40;19.25;;;;;;;;;;5004460;28;20053;-64
2023/10/12 00:43:21;;;;;;;19.85;18.70;;;;;;;;;;5003189;28;20034;-64
2023/10/12 00:45:47;;;;;;;20.98;19.10;;;;;;;;;;5002936;28;20041;-64
2023/10/12 00:48:15;;;;;;;22.58;20.85;;;;;;;;;;5002956;28;20061;-64
2023/10/12 00:50:43;;;;;;;20.38;19.27;;;;;;;;;;5003219;28;20029;-64
2023/10/12 00:55:45;;;;;;;22.38;21.08;;;;;;;;;;5003119;28;20034;-64
2023/10/12 00:58:14;;;;;;;22.00;20.77;;;;;;;;;;5003933;28;20084;-64
2023/10/12 01:00:45;;;;;;;22.77;21.48;;;;;;;;;;4985866;28;20530;-64
2023/10/12 01:03:28;;;;;;;21.92;20.70;;;;;;;;;;4999640;28;20041;-65
2023/10/12 01:08:42;;;;;;;22.90;21.60;;;;;;;;;;4999090;28;20068;-64
2023/10/12 01:11:19;;;;;;;22.15;20.85;;;;;;;;;;5000474;28;20116;-64
2023/10/12 01:14:03;;;;;;;21.58;20.27;;;;;;;;;;4982826;28;20348;-63
2023/10/12 01:16:42;;;;;;;21.58;20.38;;;;;;;;;;5002475;28;20036;-63
2023/10/12 01:19:08;;;;;;;23.08;21.60;;;;;;;;;;4984641;28;20117;-63
2023/10/12 01:21:36;;;;;;;22.05;20.75;;;;;;;;;;5001073;28;20091;-65
2023/10/12 01:24:11;;;;;;;24.20;22.75;;;;;;;;;;5003318;28;20041;-63
2023/10/12 01:26:36;;;;;;;23.20;21.90;;;;;;;;;;5003309;28;20140;-63
2023/10/12 01:29:02;;;;;;;24.60;23.20;;;;;;;;;;5002089;28;20297;-63
2023/10/12 01:31:28;;;;;;;25.15;23.75;;;;;;;;;;5001303;28;20037;-63
2023/10/12 01:33:57;;;;;;;24.50;23.20;;;;;;;;;;5001664;28;20049;-63
2023/10/12 01:36:27;;;;;;;25.00;23.58;;;;;;;;;;5003099;28;20030;-63
2023/10/12 01:39:11;;;;;;;25.73;24.33;;;;;;;;;;5001579;28;20807;-63
2023/10/12 01:41:47;;;;;;;24.95;23.60;;;;;;;;;;5000154;28;20048;-63
2023/10/12 01:44:13;;;;;;;24.23;22.92;;;;;;;;;;5001048;28;20026;-63
2023/10/12 01:46:41;;;;;;;25.63;24.23;;;;;;;;;;5002672;28;20411;-63
2023/10/12 01:49:08;;;;;;;24.73;23.33;;;;;;;;;;5002744;28;20029;-63
2023/10/12 01:51:40;;;;;;;26.77;25.27;;;;;;;;;;5002512;28;20179;-63
2023/10/12 01:54:11;;;;;;;27.50;25.23;;;;;;;;;;5002178;28;20379;-64
2023/10/12 01:56:37;;;;;;;26.98;25.23;;;;;;;;;;5005249;28;20022;-63
2023/10/12 01:59:07;;;;;;;28.77;26.35;;;;;;;;;;5004715;28;20052;-63
2023/10/12 02:01:41;;;;;;;29.23;27.52;;;;;;;;;;4989468;28;20038;-63
2023/10/12 02:04:08;;;;;;;27.15;25.55;;;;;;;;;;5004060;28;20456;-63
2023/10/12 02:06:33;;;;;;;26.65;25.02;;;;;;;;;;5004179;28;20073;-63
2023/10/12 02:09:08;;;;;;;28.10;26.60;;;;;;;;;;5002136;28;20519;-63
2023/10/12 02:12:16;;;;;;;28.80;26.50;;;;;;;;;;4990172;28;20407;-63
2023/10/12 02:14:32;;;;;;;27.95;26.20;;;;;;;;;;4997394;28;20045;-63
2023/10/12 02:17:02;;;;;;;26.42;25.02;;;;;;;;;;5005543;28;20129;-63
2023/10/12 02:20:00;;;;;;;28.90;26.95;;;;;;;;;;5003639;28;20034;-63
2023/10/12 02:22:24;;;;;;;27.13;25.70;;;;;;;;;;4999044;28;20061;-63
2023/10/12 02:27:54;;;;;;;28.85;27.35;;;;;;;;;;4992520;28;20081;-63
2023/10/12 02:30:28;;;;;;;27.08;25.58;;;;;;;;;;5005494;28;20030;-63
2023/10/12 02:33:00;;;;;;;31.23;28.63;;;;;;;;;;5005993;28;20849;-63
2023/10/12 02:35:36;;;;;;;28.02;26.55;;;;;;;;;;4989475;28;20100;-63
2023/10/12 02:38:06;;;;;;;32.28;30.35;;;;;;;;;;5002851;28;20018;-62
2023/10/12 02:40:33;;;;;;;30.67;29.00;;;;;;;;;;5004460;28;20041;-63
2023/10/12 02:42:59;;;;;;;32.20;30.42;;;;;;;;;;5004273;28;20101;-63
2023/10/12 02:45:27;;;;;;;30.65;28.98;;;;;;;;;;5004938;28;20136;-63
2023/10/12 02:47:53;;;;;;;30.50;28.85;;;;;;;;;;5002699;28;20471;-63
2023/10/12 02:50:27;;;;;;;33.53;31.73;;;;;;;;;;5001112;28;20252;-65
2023/10/12 02:52:53;;;;;;;31.23;29.35;;;;;;;;;;5001777;28;20076;-63
2023/10/12 02:55:25;;;;;;;31.13;29.38;;;;;;;;;;5003589;28;20538;-63
2023/10/12 02:57:56;;;;;;;34.20;32.33;;;;;;;;;;5004171;28;20049;-63
2023/10/12 03:03:25;;;;;;;36.08;34.10;;;;;;;;;;4993791;28;20041;-63
2023/10/12 03:05:52;;;;;;;;;;;;;;;;;;5003175;28;20041;-64
2023/10/12 03:08:20;;;;;;;35.40;33.50;;;;;;;;;;4987987;28;20541;-64
2023/10/12 03:13:35;;;;;;;38.80;36.75;;;;;;;;;;4988155;28;20375;-64
2023/10/12 03:16:22;;;;;;;37.03;35.10;;;;;;;;;;5006157;28;20425;-64
2023/10/12 03:21:33;;;;;;;42.22;40.03;;;;;;;;;;5001829;28;20038;-64
2023/10/12 03:24:02;;;;;;;41.38;38.58;;;;;;;;;;5000557;28;20033;-64
2023/10/12 03:26:28;;;;;;;40.78;37.72;;;;;;;;;;5001778;28;20099;-64
2023/10/12 03:37:15;;;;;;;42.15;40.00;;;;;;;;;;4923661;29;20044;-64
2023/10/12 03:45:23;;;;;;;38.75;36.75;;;;;;;;;;5003409;28;20345;-64
2023/10/12 03:50:36;;;;;;;43.17;40.92;;;;;;;;;;5004724;28;20053;-64
2023/10/12 03:53:05;;;;;;;45.20;42.78;;;;;;;;;;5002854;28;20033;-64
2023/10/12 03:55:33;;;;;;;39.95;37.85;;;;;;;;;;5002206;28;20822;-64
2023/10/12 03:58:07;;;;;;;39.20;37.17;;;;;;;;;;5001932;28;20029;-64
2023/10/12 04:00:48;;;;;;;42.72;40.38;;;;;;;;;;5002505;28;20030;-64
2023/10/12 04:03:18;;;;;;;39.13;37.10;;;;;;;;;;5002077;28;20365;-64
2023/10/12 04:05:51;;;;;;;;;;;;;;;;;;5003542;28;20042;-64
2023/10/12 04:18:42;;;;;;;50.20;47.42;;;;;;;;;;5001871;28;20037;-64
2023/10/12 04:21:15;;;;;;;47.95;45.47;;;;;;;;;;5003274;28;20364;-64
2023/10/12 04:26:38;;;;;;;48.08;45.53;;;;;;;;;;5002634;28;20038;-64
2023/10/12 04:34:10;;;;;;;50.95;48.25;;;;;;;;;;5002424;28;20380;-64
2023/10/12 04:46:59;;;;;;;50.08;47.40;;;;;;;;;;4999898;28;20034;-64
2023/10/12 04:49:53;;;;;;;48.22;45.75;;;;;;;;;;4982568;28;20041;-64
2023/10/12 04:57:32;;;;;;;44.33;41.95;;;;;;;;;;5001838;28;20030;-64
2023/10/12 05:00:17;;;;;;;46.97;44.45;;;;;;;;;;4984248;28;20140;-64
2023/10/12 05:07:57;;;;;;;50.38;47.58;;;;;;;;;;5001556;28;20040;-64
2023/10/12 05:10:28;;;;;;;49.72;47.22;;;;;;;;;;5001546;28;20049;-64
2023/10/12 05:13:10;;;;;;;50.28;47.70;;;;;;;;;;5001670;28;20053;-64
2023/10/12 05:15:42;;;;;;;48.67;46.20;;;;;;;;;;5001757;28;20033;-64
2023/10/12 05:18:12;;;;;;;47.17;44.67;;;;;;;;;;5002271;28;20062;-63
2023/10/12 05:20:41;;;;;;;47.83;45.33;;;;;;;;;;5001583;28;20383;-63
2023/10/12 05:23:07;;;;;;;46.75;44.35;;;;;;;;;;5002001;28;20092;-63
2023/10/12 05:25:48;;;;;;;48.28;45.75;;;;;;;;;;5002119;28;20029;-63
2023/10/12 05:28:17;;;;;;;;;;;;;;;;;;5004359;28;20382;-64
2023/10/12 05:30:59;;;;;;;41.67;38.38;;;;;;;;;;5006110;28;20383;-64
2023/10/12 05:33:38;;;;;;;44.33;42.03;;;;;;;;;;5004234;28;20057;-64
2023/10/12 05:36:10;;;;;;;42.63;40.45;;;;;;;;;;5005688;28;20026;-64
2023/10/12 05:38:37;;;;;;;43.63;41.30;;;;;;;;;;5004748;28;20119;-64
2023/10/12 05:41:09;;;;;;;46.50;44.05;;;;;;;;;;4990605;28;20033;-64
2023/10/12 05:43:36;;;;;;;45.70;43.33;;;;;;;;;;5005941;28;20039;-65
2023/10/12 05:46:10;;;;;;;44.58;42.28;;;;;;;;;;5005743;28;20056;-63
2023/10/12 05:48:41;;;;;;;47.03;44.42;;;;;;;;;;5003600;28;20069;-64
2023/10/12 05:51:10;;;;;;;44.38;42.03;;;;;;;;;;5006932;28;20050;-64
2023/10/12 05:53:37;;;;;;;47.95;45.35;;;;;;;;;;4989724;28;20522;-63
2023/10/12 05:56:04;;;;;;;42.15;40.00;;;;;;;;;;5007734;28;20089;-64
2023/10/12 05:58:29;;;;;;;43.22;40.97;;;;;;;;;;4994216;28;20038;-64
2023/10/12 06:00:56;;;;;;;45.08;42.70;;;;;;;;;;5006040;28;20491;-64
2023/10/12 06:03:21;;;;;;;46.60;44.17;;;;;;;;;;4973384;28;20429;-64
2023/10/12 06:05:48;;;;;;;45.53;43.20;;;;;;;;;;5005915;28;20038;-64
2023/10/12 06:08:18;;;;;;;40.83;38.67;;;;;;;;;;5006012;28;20025;-64
2023/10/12 06:10:45;;;;;;;41.40;39.17;;;;;;;;;;5002939;28;20058;-64
2023/10/12 06:13:15;;;;;;;39.47;37.35;;;;;;;;;;5004392;28;20581;-64
2023/10/12 06:15:42;;;;;;;37.05;35.13;;;;;;;;;;5003999;28;20038;-64
2023/10/12 06:18:10;;;;;;;38.10;36.15;;;;;;;;;;5006109;28;20223;-64
2023/10/12 06:20:44;;;;;;;39.63;37.53;;;;;;;;;;5004794;28;20030;-64
2023/10/12 06:23:13;;;;;;;37.22;35.20;;;;;;;;;;5004118;28;20042;-64
2023/10/12 06:25:39;;;;;;;35.95;34.08;;;;;;;;;;5005100;28;20529;-64
2023/10/12 06:28:16;;;;;;;36.83;34.88;;;;;;;;;;4988528;28;20116;-64
2023/10/12 06:30:43;;;;;;;35.67;33.75;;;;;;;;;;4987784;28;20100;-64
2023/10/12 06:33:13;;;;;;;36.33;34.45;;;;;;;;;;5011393;28;20033;-64
2023/10/12 06:35:58;;;;;;;39.33;37.28;;;;;;;;;;5004087;28;20069;-64
2023/10/12 06:44:12;;;;;;;37.10;35.13;;;;;;;;;;5003690;28;20041;-64
2023/10/12 06:46:44;;;;;;;37.63;35.47;;;;;;;;;;5001867;28;20033;-64
2023/10/12 06:49:16;;;;;;;37.35;34.58;;;;;;;;;;5004124;28;20041;-64
2023/10/12 06:51:43;;;;;;;37.10;35.10;;;;;;;;;;5004286;28;20042;-64
2023/10/12 06:54:18;;;;;;;36.42;34.38;;;;;;;;;;5004457;28;20459;-64
2023/10/12 06:56:50;;;;;;;37.55;35.60;;;;;;;;;;5004054;28;20270;-64
2023/10/12 06:59:21;;;;;;;37.40;35.45;;;;;;;;;;5005537;28;20049;-64
2023/10/12 07:04:13;;;;;;;39.92;37.78;;;;;;;;;;5003052;28;20046;-64
2023/10/12 07:07:07;;;;;;;39.53;37.47;;;;;;;;;;5002336;28;20030;-64
2023/10/12 07:09:39;;;;;;;38.17;36.15;;;;;;;;;;5003896;28;20029;-63
2023/10/12 07:12:17;;;;;;;38.63;36.63;;;;;;;;;;5004769;28;20309;-64
2023/10/12 07:14:46;;;;;;;36.88;34.83;;;;;;;;;;5003498;28;20034;-64
2023/10/12 07:17:12;;;;;;;37.45;35.50;;;;;;;;;;4981952;28;20419;-64
2023/10/12 07:19:46;;;;;;;36.53;34.65;;;;;;;;;;5002867;28;20036;-64
2023/10/12 07:22:15;;;;;;;39.55;37.42;;;;;;;;;;5002909;28;20391;-64
2023/10/12 07:24:52;;;;;;;37.97;35.88;;;;;;;;;;5003127;28;20044;-64
2023/10/12 07:27:18;;;;;;;37.72;35.78;;;;;;;;;;5004849;28;20041;-65
2023/10/12 07:29:47;;;;;;;39.65;37.63;;;;;;;;;;5003493;28;20029;-64
2023/10/12 07:32:38;;;;;;;40.05;37.95;;;;;;;;;;5003243;28;20367;-65
2023/10/12 07:35:53;;;;;;;41.47;39.30;;;;;;;;;;5004280;28;20038;-65
2023/10/12 07:37:51;;;;;;;40.83;38.45;;;;;;;;;;4995346;28;20061;-65
2023/10/12 07:40:19;;;;;;;40.80;38.65;;;;;;;;;;5004182;28;20526;-65
2023/10/12 07:42:46;;;;;;;42.70;39.70;;;;;;;;;;5001858;28;20026;-65
2023/10/12 07:45:15;;;;;;;41.40;39.25;;;;;;;;;;4986407;28;20042;-64
2023/10/12 07:47:41;;;;;;;39.25;37.10;;;;;;;;;;4983478;28;20085;-64
2023/10/12 07:50:12;;;;;;;38.65;36.63;;;;;;;;;;5004160;28;20034;-65
2023/10/12 07:55:06;;;;;;;36.67;34.75;;;;;;;;;;5004430;28;20045;-65
2023/10/12 07:57:35;;;;;;;39.88;37.75;;;;;;;;;;4988174;28;20045;-64
2023/10/12 08:13:05;;;;;;;43.33;41.00;;;;;;;;;;5002232;28;20080;-64
2023/10/12 08:15:49;;;;;;;46.45;43.97;;;;;;;;;;5001847;28;20382;-64
2023/10/12 08:19:09;;;;;;;48.95;46.40;;;;;;;;;;4981477;28;20161;-64
2023/10/12 08:21:04;;;;;;;38.95;36.92;;;;;;;;;;5000664;28;20156;-64
2023/10/12 08:23:30;;;;;;;42.72;40.35;;;;;;;;;;5001987;28;20030;-64
2023/10/12 08:25:57;;;;;;;49.65;47.03;;;;;;;;;;5001900;28;20046;-66
2023/10/12 08:28:25;;;;;;;52.03;49.33;;;;;;;;;;5003180;28;20037;-64
2023/10/12 08:31:00;;;;;;;44.72;42.30;;;;;;;;;;5002722;28;20101;-64
2023/10/12 08:36:23;;;;;;;49.75;47.10;;;;;;;;;;5002282;28;20460;-64
2023/10/12 08:38:55;;;;;;;42.90;40.67;;;;;;;;;;5001867;28;20561;-64
2023/10/12 08:44:04;;;;;;;44.63;42.33;;;;;;;;;;5001597;28;20255;-65
2023/10/12 08:52:04;;;;;;;36.30;34.38;;;;;;;;;;5004669;28;20045;-65
2023/10/12 08:54:35;;;;;;;36.05;34.15;;;;;;;;;;5002513;28;20539;-65
2023/10/12 08:57:02;;;;;;;34.30;32.50;;;;;;;;;;5001214;28;20034;-65
2023/10/12 08:59:33;;;;;;;36.95;34.08;;;;;;;;;;5003454;28;20053;-65
2023/10/12 09:02:12;;;;;;;35.08;33.17;;;;;;;;;;4985450;28;20076;-65
2023/10/12 09:04:39;;;;;;;31.30;29.60;;;;;;;;;;5002098;28;20034;-65
2023/10/12 09:07:05;;;;;;;34.60;32.60;;;;;;;;;;5002925;28;20176;-66
2023/10/12 09:09:48;;;;;;;32.85;30.98;;;;;;;;;;5001539;28;20532;-66
2023/10/12 09:12:19;;;;;;;30.58;28.95;;;;;;;;;;4999603;28;20041;-66
2023/10/12 09:14:44;;;;;;;29.58;27.98;;;;;;;;;;4986173;28;20371;-65
2023/10/12 09:17:20;;;;;;;35.55;33.63;;;;;;;;;;5002625;28;20030;-67
2023/10/12 09:19:47;;;;;;;37.40;35.28;;;;;;;;;;5003388;28;20333;-68
2023/10/12 09:22:12;;;;;;;39.35;37.30;;;;;;;;;;5000928;28;20033;-68
2023/10/12 09:24:40;;;;;;;38.65;36.47;;;;;;;;;;5003746;28;20435;-67
2023/10/12 09:27:26;;;;;;;33.80;31.90;;;;;;;;;;4985566;28;20041;-69
2023/10/12 09:29:57;;;;;;;31.23;29.55;;;;;;;;;;5001689;28;20056;-69
2023/10/12 09:32:26;;;;;;;43.17;40.88;;;;;;;;;;4999303;28;20034;-68
2023/10/12 09:35:11;;;;;;;45.85;43.15;;;;;;;;;;4998196;28;20073;-68
2023/10/12 09:37:51;;;;;;;44.25;41.67;;;;;;;;;;5002134;28;20100;-68
2023/10/12 09:40:35;;;;;;;36.20;34.30;;;;;;;;;;5001344;28;20155;-68
2023/10/12 09:43:06;;;;;;;41.38;39.17;;;;;;;;;;5002023;28;20033;-69
2023/10/12 09:45:45;;;;;;;32.97;31.20;;;;;;;;;;5001544;28;20031;-68
2023/10/12 09:48:18;;;;;;;42.20;39.72;;;;;;;;;;5003486;28;20035;-68
2023/10/12 09:50:44;;;;;;;54.58;51.72;;;;;;;;;;5000761;28;20113;-69
2023/10/12 09:53:14;;;;;;;71.65;67.93;;;;;;;;;;4999532;28;20177;-69
2023/10/12 09:55:45;;;;;;;76.55;72.57;;;;;;;;;;5003657;28;20083;-69
2023/10/12 09:58:15;;;;;;;79.03;74.85;;;;;;;;;;5000857;28;21131;-69
2023/10/12 10:00:55;;;;;;;78.03;74.07;;;;;;;;;;5000056;28;20042;-69
2023/10/12 10:03:23;;;;;;;73.80;70.07;;;;;;;;;;5001372;28;20037;-69
2023/10/12 10:05:56;;;;;;;62.47;59.30;;;;;;;;;;5001070;28;20048;-69
2023/10/12 10:08:26;;;;;;;68.20;64.20;;;;;;;;;;5001131;28;20072;-69
2023/10/12 10:10:57;;;;;;;;;;;;;;;;;;4999823;28;20107;-69
2023/10/12 10:13:49;;;;;;;38.95;36.85;;;;;;;;;;5001846;28;20323;-69
2023/10/12 10:16:19;;;;;;;61.33;57.63;;;;;;;;;;5003807;28;20041;-69
2023/10/12 10:18:49;;;;;;;73.25;68.95;;;;;;;;;;5005901;28;20034;-69
2023/10/12 10:21:19;;;;;;;70.07;66.53;;;;;;;;;;5005938;28;20547;-69
2023/10/12 10:23:48;;;;;;;68.53;64.68;;;;;;;;;;5004447;28;20030;-69
2023/10/12 10:26:23;;;;;;;71.18;67.38;;;;;;;;;;5003942;28;20030;-69
2023/10/12 10:28:55;;;;;;;76.38;72.18;;;;;;;;;;5002462;28;20041;-69
2023/10/12 10:31:31;;;;;;;75.80;71.45;;;;;;;;;;5005110;28;20327;-69
2023/10/12 10:34:01;;;;;;;81.63;77.40;;;;;;;;;;4987310;28;20495;-69
2023/10/12 10:36:34;;;;;;;86.10;81.60;;;;;;;;;;5007395;28;20125;-69
2023/10/12 10:39:03;;;;;;;84.65;80.32;;;;;;;;;;5002363;28;20045;-69
2023/10/12 10:44:21;;;;;;;95.22;90.35;;;;;;;;;;4988329;28;20132;-69
2023/10/12 10:47:00;;;;;;;95.90;90.95;;;;;;;;;;5004820;28;20062;-69
2023/10/12 10:49:32;;;;;;;93.88;89.10;;;;;;;;;;5006421;28;20140;-69
2023/10/12 10:54:29;;;;;;;;;;;;;;;;;;5006947;28;20452;-69
2023/10/12 10:56:58;;;;;;;72.88;69.15;;;;;;;;;;5004844;28;19976;-69
2023/10/12 10:59:24;;;;;;;92.35;87.60;;;;;;;;;;5004787;28;20511;-69
2023/10/12 11:01:50;;;;;;;110.22;104.50;;;;;;;;;;5005833;28;20041;-70
2023/10/12 11:06:58;;;;;;;109.65;104.03;;;;;;;;;;5003595;28;20038;-69
2023/10/12 11:09:31;;;;;;;121.63;115.32;;;;;;;;;;5002637;28;20265;-69
2023/10/12 11:11:58;;;;;;;126.88;120.40;;;;;;;;;;5001848;28;20044;-70
2023/10/12 11:14:25;;;;;;;115.43;109.63;;;;;;;;;;5001507;28;20068;-70
2023/10/12 11:16:51;;;;;;;108.55;103.10;;;;;;;;;;5003047;28;20041;-69
2023/10/12 11:19:19;;;;;;;107.63;102.15;;;;;;;;;;4987119;28;20038;-70
2023/10/12 11:21:57;;;;;;;111.63;105.75;;;;;;;;;;5003412;28;20153;-69
2023/10/12 11:24:24;;;;;;;105.97;100.57;;;;;;;;;;5003036;28;20073;-70
2023/10/12 11:26:57;;;;;;;111.93;105.90;;;;;;;;;;4987544;28;20116;-69
2023/10/12 11:29:25;;;;;;;111.28;105.63;;;;;;;;;;5003907;28;20034;-69
2023/10/12 11:32:16;;;;;;;102.20;96.90;;;;;;;;;;5004433;28;20124;-69
2023/10/12 11:34:45;;;;;;;;;;;;;;;;;;5005190;28;20037;-69
2023/10/12 11:37:15;;;;;;;70.55;66.38;;;;;;;;;;5003515;28;20338;-69
2023/10/12 11:39:44;;;;;;;73.28;69.57;;;;;;;;;;4972227;28;20038;-69
2023/10/12 11:42:13;;;;;;;87.80;83.30;;;;;;;;;;5001747;28;20040;-69
2023/10/12 11:44:43;;;;;;;95.55;90.78;;;;;;;;;;5000627;28;20125;-69
2023/10/12 11:47:28;;;;;;;84.73;80.47;;;;;;;;;;5001054;28;20042;-69
2023/10/12 11:49:57;;;;;;;83.30;79.07;;;;;;;;;;4987336;28;20085;-69
2023/10/12 11:52:30;;;;;;;80.82;76.78;;;;;;;;;;5001591;28;20041;-69
2023/10/12 11:55:07;;;;;;;82.30;78.13;;;;;;;;;;4986131;28;20490;-70
2023/10/12 11:57:38;;;;;;;89.45;84.88;;;;;;;;;;5003039;28;20497;-69
2023/10/12 12:00:20;;;;;;;87.82;82.93;;;;;;;;;;5002828;28;20030;-69
2023/10/12 12:02:47;;;;;;;75.22;71.45;;;;;;;;;;5003167;28;20065;-69
2023/10/12 12:05:13;;;;;;;84.82;80.50;;;;;;;;;;5004024;28;20034;-69
2023/10/12 12:07:38;;;;;;;83.40;79.20;;;;;;;;;;5003090;28;20052;-69
2023/10/12 12:10:07;;;;;;;96.28;91.38;;;;;;;;;;5004323;28;20578;-69
2023/10/12 12:12:34;;;;;;;84.00;79.50;;;;;;;;;;5002734;28;20037;-69
2023/10/12 12:14:59;;;;;;;75.70;71.82;;;;;;;;;;5002494;28;20040;-69
2023/10/12 12:17:26;;;;;;;84.80;80.50;;;;;;;;;;4999929;28;20388;-69
2023/10/12 12:19:52;;;;;;;112.28;106.50;;;;;;;;;;5001648;28;20114;-69
2023/10/12 12:22:18;;;;;;;93.25;88.55;;;;;;;;;;5002580;28;20060;-69
2023/10/12 12:24:44;;;;;;;87.07;82.55;;;;;;;;;;4987116;28;20053;-69
2023/10/12 12:27:37;;;;;;;81.30;77.20;;;;;;;;;;5003340;28;20849;-69
2023/10/12 12:29:57;;;;;;;87.70;83.25;;;;;;;;;;5002389;28;20139;-69
2023/10/12 12:32:26;;;;;;;87.35;82.90;;;;;;;;;;4990076;28;20214;-69
2023/10/12 12:34:52;;;;;;;93.70;89.00;;;;;;;;;;5002773;28;20030;-69
2023/10/12 12:37:17;;;;;;;83.60;79.15;;;;;;;;;;5001433;28;20259;-69
2023/10/12 12:39:43;;;;;;;90.50;85.90;;;;;;;;;;5002714;28;20049;-69
2023/10/12 12:42:11;;;;;;;98.25;92.80;;;;;;;;;;5002618;28;20053;-69
2023/10/12 12:44:39;;;;;;;108.53;102.90;;;;;;;;;;5002031;28;20208;-69
2023/10/12 12:47:06;;;;;;;95.95;91.13;;;;;;;;;;5001022;28;20097;-69
2023/10/12 12:49:32;;;;;;;89.65;85.03;;;;;;;;;;5002799;28;20346;-69
2023/10/12 12:51:58;;;;;;;84.10;79.88;;;;;;;;;;5001768;28;20061;-69
2023/10/12 12:54:26;;;;;;;78.95;74.93;;;;;;;;;;4999362;28;20034;-70
2023/10/12 12:56:54;;;;;;;77.15;73.22;;;;;;;;;;5001116;28;20038;-69
2023/10/12 12:59:24;;;;;;;74.97;71.20;;;;;;;;;;5000833;28;20057;-69
2023/10/12 13:01:50;;;;;;;76.85;73.00;;;;;;;;;;4984558;28;20044;-69
2023/10/12 13:04:17;;;;;;;75.78;71.95;;;;;;;;;;4999549;28;20068;-69
2023/10/12 13:06:43;;;;;;;86.57;82.18;;;;;;;;;;5002285;28;20052;-69
2023/10/12 13:09:28;;;;;;;78.03;74.10;;;;;;;;;;4984897;28;20033;-70
2023/10/12 13:11:54;;;;;;;77.03;73.07;;;;;;;;;;5001388;28;20126;-68
2023/10/12 13:14:19;;;;;;;82.18;77.95;;;;;;;;;;5002341;28;20499;-68
2023/10/12 13:16:44;;;;;;;92.15;87.38;;;;;;;;;;4986976;28;20042;-68
2023/10/12 13:19:11;;;;;;;94.57;89.85;;;;;;;;;;5002699;28;20515;-69
2023/10/12 13:21:41;;;;;;;107.65;102.20;;;;;;;;;;5002080;28;20053;-68
2023/10/12 13:24:08;;;;;;;123.57;117.20;;;;;;;;;;5002595;28;20034;-68
2023/10/12 13:26:33;;;;;;;123.57;117.38;;;;;;;;;;5001257;28;20394;-68
2023/10/12 13:29:01;;;;;;;106.80;100.72;;;;;;;;;;5000985;28;20121;-70
2023/10/12 13:31:28;;;;;;;105.60;100.07;;;;;;;;;;5003281;28;20034;-70
2023/10/12 13:33:53;;;;;;;129.70;123.22;;;;;;;;;;5002360;28;20308;-67
2023/10/12 13:36:20;;;;;;;115.40;109.65;;;;;;;;;;4985973;28;20042;-70
2023/10/12 13:38:45;;;;;;;121.15;114.75;;;;;;;;;;5002448;28;20038;-70
2023/10/12 13:41:11;;;;;;;138.65;131.40;;;;;;;;;;5003521;28;20030;-70
2023/10/12 13:43:37;;;;;;;143.60;135.93;;;;;;;;;;5002427;28;20345;-70
2023/10/12 13:46:12;;;;;;;150.02;142.27;;;;;;;;;;4984626;28;20112;-70
2023/10/12 13:48:38;;;;;;;156.15;148.15;;;;;;;;;;4982965;28;20030;-70
2023/10/12 13:51:04;;;;;;;160.65;152.25;;;;;;;;;;5004915;28;20057;-70
2023/10/12 13:53:36;;;;;;;174.57;165.52;;;;;;;;;;5004636;28;20026;-67
2023/10/12 13:56:04;;;;;;;193.95;183.65;;;;;;;;;;4987876;28;20052;-67
2023/10/12 13:58:33;;;;;;;192.10;182.05;;;;;;;;;;4984097;28;20263;-68
2023/10/12 14:01:01;;;;;;;213.25;202.05;;;;;;;;;;5005511;28;20045;-69
2023/10/12 14:03:34;;;;;;;221.55;210.10;;;;;;;;;;5007318;28;20077;-69
2023/10/12 14:06:01;;;;;;;215.95;204.85;;;;;;;;;;5002862;28;20088;-68
2023/10/12 14:08:28;;;;;;;198.77;188.65;;;;;;;;;;5004560;28;20038;-69
2023/10/12 14:10:54;;;;;;;203.05;192.75;;;;;;;;;;5005161;28;20164;-69
2023/10/12 14:13:20;;;;;;;206.13;195.57;;;;;;;;;;5005707;28;20221;-68
2023/10/12 14:15:47;;;;;;;233.95;220.63;;;;;;;;;;4986354;28;20036;-67
2023/10/12 14:18:16;;;;;;;238.93;226.50;;;;;;;;;;4989251;28;20034;-66
2023/10/12 14:20:46;;;;;;;222.05;210.48;;;;;;;;;;5003515;28;20037;-66
2023/10/12 14:23:12;;;;;;;221.38;210.00;;;;;;;;;;5005660;28;20127;-66
2023/10/12 14:25:50;;;;;;;215.93;204.93;;;;;;;;;;5004874;28;20034;-66
2023/10/12 14:28:17;;;;;;;199.88;189.68;;;;;;;;;;5004544;28;20026;-66
2023/10/12 14:30:47;;;;;;;217.90;206.68;;;;;;;;;;4987957;28;20054;-66
2023/10/12 14:33:15;;;;;;;226.75;215.13;;;;;;;;;;5003143;28;20064;-66
2023/10/12 14:35:41;;;;;;;241.10;228.70;;;;;;;;;;5003788;28;24211;-66
2023/10/12 14:38:12;;;;;;;254.18;240.88;;;;;;;;;;5003461;28;20042;-66
2023/10/12 14:40:40;;;;;;;247.30;234.73;;;;;;;;;;5003476;28;20038;-66
2023/10/12 14:43:10;;;;;;;271.25;257.08;;;;;;;;;;5005249;28;20253;-67
2023/10/12 14:45:38;;;;;;;239.68;227.57;;;;;;;;;;5003589;28;20177;-66
2023/10/12 14:48:09;;;;;;;247.65;235.02;;;;;;;;;;5003859;28;20121;-66
2023/10/12 14:50:49;;;;;;;253.75;240.88;;;;;;;;;;5004204;28;20034;-67
2023/10/12 14:53:21;;;;;;;228.05;216.32;;;;;;;;;;5005377;28;20072;-66
2023/10/12 14:55:51;;;;;;;221.93;210.75;;;;;;;;;;5005078;28;20418;-66
2023/10/12 14:58:17;;;;;;;211.52;200.93;;;;;;;;;;5006346;28;20100;-66
2023/10/12 15:00:45;;;;;;;228.20;216.75;;;;;;;;;;5005486;28;20034;-66
2023/10/12 15:03:26;;;;;;;192.95;183.32;;;;;;;;;;5000892;28;20530;-65
2023/10/12 15:05:55;;;;;;;175.32;166.60;;;;;;;;;;5002665;28;20535;-66
2023/10/12 15:08:22;;;;;;;181.30;172.27;;;;;;;;;;4983088;28;20050;-67
2023/10/12 15:10:48;;;;;;;179.60;170.65;;;;;;;;;;4987315;28;20037;-67
2023/10/12 15:13:16;;;;;;;176.27;167.43;;;;;;;;;;5004163;28;20554;-67
2023/10/12 15:15:45;;;;;;;157.13;149.38;;;;;;;;;;5004592;28;20030;-68
2023/10/12 15:18:15;;;;;;;126.10;119.78;;;;;;;;;;5003133;28;20042;-68
2023/10/12 15:20:43;;;;;;;110.53;104.70;;;;;;;;;;5004785;28;20048;-68
2023/10/12 15:23:09;;;;;;;147.65;140.25;;;;;;;;;;5002025;28;20376;-68
2023/10/12 15:25:35;;;;;;;143.85;136.48;;;;;;;;;;5003739;28;20049;-68
2023/10/12 15:28:04;;;;;;;160.50;152.50;;;;;;;;;;5005149;28;20034;-66
2023/10/12 15:30:33;;;;;;;154.23;146.52;;;;;;;;;;5002370;28;20113;-66
2023/10/12 15:32:59;;;;;;;147.65;140.30;;;;;;;;;;5003602;28;20042;-66
2023/10/12 15:35:26;;;;;;;158.40;150.43;;;;;;;;;;4985456;28;20444;-66
2023/10/12 15:37:55;;;;;;;165.10;156.88;;;;;;;;;;5001549;28;20373;-68
2023/10/12 15:40:21;;;;;;;157.23;149.32;;;;;;;;;;5000799;28;20038;-68
2023/10/12 15:42:53;;;;;;;148.57;141.18;;;;;;;;;;5002693;28;20034;-65
2023/10/12 15:45:25;;;;;;;151.32;143.25;;;;;;;;;;5002825;28;20121;-68
2023/10/12 15:47:52;;;;;;;148.30;140.93;;;;;;;;;;5003359;28;20037;-66
2023/10/12 15:50:18;;;;;;;158.73;150.82;;;;;;;;;;5007272;28;20112;-67
2023/10/12 15:52:45;;;;;;;162.35;154.23;;;;;;;;;;5003881;28;20040;-68
2023/10/12 15:55:14;;;;;;;160.02;152.13;;;;;;;;;;4984224;28;20038;-68
2023/10/12 15:57:44;;;;;;;158.00;150.18;;;;;;;;;;5003580;28;20471;-68
2023/10/12 16:00:23;;;;;;;159.57;151.57;;;;;;;;;;5003263;28;20376;-68
2023/10/12 16:02:53;;;;;;;161.68;153.63;;;;;;;;;;4980652;28;20229;-68
2023/10/12 16:05:20;;;;;;;148.27;140.80;;;;;;;;;;5004328;28;20109;-68
2023/10/12 16:07:46;;;;;;;174.48;165.68;;;;;;;;;;5005277;28;20033;-68
2023/10/12 16:10:12;;;;;;;201.73;189.55;;;;;;;;;;5004331;28;20083;-68
2023/10/12 16:12:38;;;;;;;229.30;217.55;;;;;;;;;;4986959;28;20616;-68
2023/10/12 16:15:04;;;;;;;237.27;224.95;;;;;;;;;;4982394;28;20137;-68
2023/10/12 16:17:30;;;;;;;235.90;223.65;;;;;;;;;;5003247;28;20294;-68
2023/10/12 16:19:57;;;;;;;238.00;225.70;;;;;;;;;;4987538;28;20037;-68
2023/10/12 16:22:23;;;;;;;260.77;247.40;;;;;;;;;;5003066;28;20071;-68
2023/10/12 16:24:49;;;;;;;250.77;237.93;;;;;;;;;;4969348;28;20077;-68
2023/10/12 16:27:17;;;;;;;240.45;228.20;;;;;;;;;;5002690;28;20037;-68
2023/10/12 16:29:43;;;;;;;250.80;237.98;;;;;;;;;;5003630;28;20464;-69
2023/10/12 16:32:09;;;;;;;245.63;233.13;;;;;;;;;;4997442;28;20037;-68
2023/10/12 16:34:35;;;;;;;247.27;234.68;;;;;;;;;;4979702;28;20468;-68